createdAt,value
2018-02-16T00:00:13.491Z,1011.50
2018-02-16T00:01:13.526Z,1011.53
2018-02-16T00:02:13.546Z,1011.49
2018-02-16T00:03:13.574Z,1011.47
2018-02-16T00:04:13.602Z,1011.53
2018-02-16T00:05:13.629Z,1011.51
2018-02-16T00:06:13.661Z,1011.49
2018-02-16T00:07:13.685Z,1011.49
2018-02-16T00:08:13.711Z,1011.48
2018-02-16T00:09:13.739Z,1011.45
2018-02-16T00:10:13.767Z,1011.50
2018-02-16T00:11:13.795Z,1011.50
2018-02-16T00:12:13.821Z,1011.52
2018-02-16T00:13:13.849Z,1011.50
2018-02-16T00:14:13.877Z,1011.50
2018-02-16T00:15:13.932Z,1011.48
2018-02-16T00:16:13.934Z,1011.50
2018-02-16T00:17:13.960Z,1011.49
2018-02-16T00:18:13.986Z,1011.51
2018-02-16T00:19:14.015Z,1011.46
2018-02-16T00:20:14.047Z,1011.46
2018-02-16T00:21:14.070Z,1011.48
2018-02-16T00:22:14.097Z,1011.46
2018-02-16T00:23:14.125Z,1011.44
2018-02-16T00:24:14.152Z,1011.42
2018-02-16T00:25:14.180Z,1011.42
2018-02-16T00:26:14.208Z,1011.42
2018-02-16T00:27:14.235Z,1011.42
2018-02-16T00:28:14.263Z,1011.40
2018-02-16T00:29:14.289Z,1011.34
2018-02-16T00:30:14.317Z,1011.33
2018-02-16T00:31:14.345Z,1011.37
2018-02-16T00:32:14.388Z,1011.34
2018-02-16T00:33:14.403Z,1011.38
2018-02-16T00:34:14.428Z,1011.39
2018-02-16T00:35:14.456Z,1011.35
2018-02-16T00:36:14.483Z,1011.37
2018-02-16T00:37:14.510Z,1011.34
2018-02-16T00:38:14.538Z,1011.30
2018-02-16T00:39:14.599Z,1011.34
2018-02-16T00:40:14.604Z,1011.32
2018-02-16T00:41:14.619Z,1011.32
2018-02-16T00:42:14.648Z,1011.33
2018-02-16T00:43:14.675Z,1011.32
2018-02-16T00:44:14.702Z,1011.33
2018-02-16T00:45:14.730Z,1011.36
2018-02-16T00:46:14.760Z,1011.33
2018-02-16T00:47:14.785Z,1011.33
2018-02-16T00:48:14.812Z,1011.32
2018-02-16T00:49:14.840Z,1011.33
2018-02-16T00:50:14.868Z,1011.31
2018-02-16T00:51:14.896Z,1011.29
2018-02-16T00:52:14.922Z,1011.30
2018-02-16T00:53:14.950Z,1011.28
2018-02-16T00:54:14.978Z,1011.29
2018-02-16T00:55:15.006Z,1011.30
2018-02-16T00:56:15.032Z,1011.29
2018-02-16T00:57:15.061Z,1011.27
2018-02-16T00:58:15.088Z,1011.24
2018-02-16T00:59:15.115Z,1011.24
2018-02-16T01:00:15.142Z,1011.26
2018-02-16T01:01:15.170Z,1011.20
2018-02-16T01:02:15.198Z,1011.20
2018-02-16T01:03:15.227Z,1011.19
2018-02-16T01:04:15.252Z,1011.16
2018-02-16T01:05:15.280Z,1011.17
2018-02-16T01:06:15.356Z,1011.15
2018-02-16T01:07:15.335Z,1011.18
2018-02-16T01:08:15.362Z,1011.16
2018-02-16T01:09:15.390Z,1011.16
2018-02-16T01:10:15.417Z,1011.19
2018-02-16T01:11:15.446Z,1011.16
2018-02-16T01:12:15.475Z,1011.10
2018-02-16T01:13:15.499Z,1011.12
2018-02-16T01:14:15.530Z,1011.10
2018-02-16T01:15:15.555Z,1011.09
2018-02-16T01:16:15.583Z,1011.10
2018-02-16T01:17:15.613Z,1011.10
2018-02-16T01:18:15.637Z,1011.08
2018-02-16T01:19:15.677Z,1011.05
2018-02-16T01:20:15.691Z,1011.11
2018-02-16T01:21:15.720Z,1011.06
2018-02-16T01:22:15.747Z,1011.08
2018-02-16T01:23:15.775Z,1011.06
2018-02-16T01:24:15.802Z,1011.05
2018-02-16T01:25:15.830Z,1011.03
2018-02-16T01:26:15.858Z,1011.08
2018-02-16T01:27:15.885Z,1011.02
2018-02-16T01:28:15.912Z,1011.06
2018-02-16T01:29:15.939Z,1011.02
2018-02-16T01:30:15.969Z,1011.08
2018-02-16T01:31:15.995Z,1011.02
2018-02-16T01:32:16.022Z,1010.99
2018-02-16T01:33:16.050Z,1011.01
2018-02-16T01:34:16.078Z,1011.01
2018-02-16T01:35:16.105Z,1010.94
2018-02-16T01:36:16.132Z,1010.97
2018-02-16T01:37:16.192Z,1011.00
2018-02-16T01:38:16.187Z,1010.99
2018-02-16T01:39:16.215Z,1010.97
2018-02-16T01:40:16.260Z,1010.94
2018-02-16T01:41:16.269Z,1010.96
2018-02-16T01:42:16.297Z,1010.97
2018-02-16T01:43:16.325Z,1010.90
2018-02-16T01:44:16.352Z,1010.93
2018-02-16T01:45:16.379Z,1010.89
2018-02-16T01:46:16.410Z,1010.90
2018-02-16T01:47:16.435Z,1010.88
2018-02-16T01:48:16.462Z,1010.89
2018-02-16T01:49:16.490Z,1010.85
2018-02-16T01:50:16.517Z,1010.85
2018-02-16T01:51:16.562Z,1010.80
2018-02-16T01:52:16.572Z,1010.80
2018-02-16T01:53:16.600Z,1010.82
2018-02-16T01:54:16.627Z,1010.83
2018-02-16T01:55:16.654Z,1010.76
2018-02-16T01:56:16.682Z,1010.77
2018-02-16T01:57:16.710Z,1010.77
2018-02-16T01:58:16.737Z,1010.73
2018-02-16T01:59:16.765Z,1010.72
2018-02-16T02:00:16.819Z,1010.73
2018-02-16T02:01:16.819Z,1010.72
2018-02-16T02:02:16.847Z,1010.74
2018-02-16T02:03:16.875Z,1010.70
2018-02-16T02:04:16.904Z,1010.67
2018-02-16T02:05:16.929Z,1010.72
2018-02-16T02:06:16.958Z,1010.72
2018-02-16T02:07:16.986Z,1010.72
2018-02-16T02:08:17.011Z,1010.75
2018-02-16T02:09:17.040Z,1010.70
2018-02-16T02:10:17.067Z,1010.69
2018-02-16T02:11:17.095Z,1010.69
2018-02-16T02:12:17.121Z,1010.68
2018-02-16T02:13:17.150Z,1010.66
2018-02-16T02:14:17.198Z,1010.67
2018-02-16T02:15:17.205Z,1010.65
2018-02-16T02:16:17.232Z,1010.65
2018-02-16T02:17:17.259Z,1010.63
2018-02-16T02:18:17.287Z,1010.64
2018-02-16T02:19:17.315Z,1010.66
2018-02-16T02:20:17.342Z,1010.65
2018-02-16T02:21:17.369Z,1010.65
2018-02-16T02:22:17.397Z,1010.63
2018-02-16T02:23:17.425Z,1010.62
2018-02-16T02:24:17.452Z,1010.64
2018-02-16T02:25:17.479Z,1010.61
2018-02-16T02:26:17.507Z,1010.61
2018-02-16T02:27:17.534Z,1010.62
2018-02-16T02:28:17.563Z,1010.60
2018-02-16T02:29:17.589Z,1010.55
2018-02-16T02:30:17.621Z,1010.57
2018-02-16T02:31:17.644Z,1010.54
2018-02-16T02:32:17.671Z,1010.55
2018-02-16T02:33:17.699Z,1010.50
2018-02-16T02:34:17.727Z,1010.52
2018-02-16T02:35:17.754Z,1010.51
2018-02-16T02:36:17.781Z,1010.52
2018-02-16T02:37:17.810Z,1010.47
2018-02-16T02:38:17.841Z,1010.47
2018-02-16T02:39:17.866Z,1010.45
2018-02-16T02:40:17.891Z,1010.47
2018-02-16T02:41:17.948Z,1010.46
2018-02-16T02:42:17.946Z,1010.45
2018-02-16T02:43:17.976Z,1010.46
2018-02-16T02:44:18.001Z,1010.44
2018-02-16T02:45:18.029Z,1010.45
2018-02-16T02:46:18.056Z,1010.46
2018-02-16T02:47:18.084Z,1010.39
2018-02-16T02:48:18.111Z,1010.42
2018-02-16T02:49:18.146Z,1010.40
2018-02-16T02:50:18.177Z,1010.38
2018-02-16T02:51:18.193Z,1010.38
2018-02-16T02:52:18.222Z,1010.39
2018-02-16T02:53:18.249Z,1010.39
2018-02-16T02:54:18.276Z,1010.38
2018-02-16T02:55:18.303Z,1010.39
2018-02-16T02:56:18.331Z,1010.36
2018-02-16T02:57:18.359Z,1010.33
2018-02-16T02:58:18.405Z,1010.33
2018-02-16T02:59:18.414Z,1010.33
2018-02-16T03:00:18.440Z,1010.34
2018-02-16T03:01:18.496Z,1010.33
2018-02-16T03:02:18.497Z,1010.34
2018-02-16T03:03:18.523Z,1010.35
2018-02-16T03:04:18.550Z,1010.34
2018-02-16T03:05:18.579Z,1010.37
2018-02-16T03:06:18.605Z,1010.35
2018-02-16T03:07:18.634Z,1010.36
2018-02-16T03:08:18.660Z,1010.34
2018-02-16T03:09:18.688Z,1010.36
2018-02-16T03:10:18.715Z,1010.35
2018-02-16T03:11:18.744Z,1010.34
2018-02-16T03:12:18.770Z,1010.31
2018-02-16T03:13:18.797Z,1010.31
2018-02-16T03:14:18.825Z,1010.32
2018-02-16T03:15:18.853Z,1010.34
2018-02-16T03:16:18.880Z,1010.29
2018-02-16T03:17:18.908Z,1010.30
2018-02-16T03:18:18.936Z,1010.29
2018-02-16T03:19:18.963Z,1010.27
2018-02-16T03:20:18.989Z,1010.28
2018-02-16T03:21:19.018Z,1010.27
2018-02-16T03:22:19.044Z,1010.29
2018-02-16T03:23:19.073Z,1010.27
2018-02-16T03:24:19.125Z,1010.26
2018-02-16T03:25:19.127Z,1010.25
2018-02-16T03:26:19.155Z,1010.23
2018-02-16T03:27:19.184Z,1010.22
2018-02-16T03:28:19.210Z,1010.22
2018-02-16T03:29:19.237Z,1010.22
2018-02-16T03:30:19.266Z,1010.18
2018-02-16T03:31:19.294Z,1010.19
2018-02-16T03:32:19.320Z,1010.18
2018-02-16T03:33:19.347Z,1010.21
2018-02-16T03:34:19.375Z,1010.17
2018-02-16T03:35:19.403Z,1010.17
2018-02-16T03:36:19.429Z,1010.12
2018-02-16T03:37:19.457Z,1010.14
2018-02-16T03:38:19.487Z,1010.16
2018-02-16T03:39:19.516Z,1010.11
2018-02-16T03:40:19.539Z,1010.11
2018-02-16T03:41:19.567Z,1010.09
2018-02-16T03:42:19.595Z,1010.11
2018-02-16T03:43:19.622Z,1010.05
2018-02-16T03:44:19.649Z,1010.08
2018-02-16T03:45:19.678Z,1010.12
2018-02-16T03:46:19.704Z,1010.07
2018-02-16T03:47:19.734Z,1010.04
2018-02-16T03:48:19.786Z,1010.01
2018-02-16T03:49:19.787Z,1010.04
2018-02-16T03:50:19.815Z,1010.00
2018-02-16T03:51:19.843Z,1010.01
2018-02-16T03:52:19.870Z,1009.99
2018-02-16T03:53:19.897Z,1009.97
2018-02-16T03:54:19.925Z,1010.00
2018-02-16T03:55:19.953Z,1009.99
2018-02-16T03:56:20.013Z,1009.95
2018-02-16T03:57:20.008Z,1009.98
2018-02-16T03:58:20.037Z,1009.99
2018-02-16T03:59:20.062Z,1010.03
2018-02-16T04:00:20.090Z,1010.00
2018-02-16T04:01:20.118Z,1010.00
2018-02-16T04:02:20.145Z,1009.98
2018-02-16T04:03:20.172Z,1009.97
2018-02-16T04:04:20.200Z,1009.99
2018-02-16T04:05:20.227Z,1009.97
2018-02-16T04:06:20.255Z,1009.96
2018-02-16T04:07:20.283Z,1009.94
2018-02-16T04:08:20.311Z,1009.97
2018-02-16T04:09:20.337Z,1009.93
2018-02-16T04:10:20.365Z,1009.97
2018-02-16T04:11:20.393Z,1009.93
2018-02-16T04:12:20.420Z,1009.91
2018-02-16T04:13:20.448Z,1009.87
2018-02-16T04:14:20.475Z,1009.87
2018-02-16T04:15:20.512Z,1009.90
2018-02-16T04:16:20.530Z,1009.89
2018-02-16T04:17:20.557Z,1009.90
2018-02-16T04:18:20.585Z,1009.86
2018-02-16T04:19:20.613Z,1009.90
2018-02-16T04:20:20.640Z,1009.90
2018-02-16T04:21:20.667Z,1009.90
2018-02-16T04:22:20.695Z,1009.90
2018-02-16T04:23:20.723Z,1009.90
2018-02-16T04:24:20.750Z,1009.90
2018-02-16T04:25:20.815Z,1009.96
2018-02-16T04:26:20.833Z,1009.95
2018-02-16T04:27:20.833Z,1009.92
2018-02-16T04:28:20.888Z,1009.93
2018-02-16T04:29:20.905Z,1009.94
2018-02-16T04:30:20.915Z,1009.92
2018-02-16T04:31:20.944Z,1009.88
2018-02-16T04:32:20.971Z,1009.87
2018-02-16T04:33:20.999Z,1009.87
2018-02-16T04:34:21.026Z,1009.87
2018-02-16T04:35:21.054Z,1009.85
2018-02-16T04:36:21.080Z,1009.82
2018-02-16T04:37:21.108Z,1009.81
2018-02-16T04:38:21.136Z,1009.78
2018-02-16T04:39:21.164Z,1009.77
2018-02-16T04:40:21.204Z,1009.77
2018-02-16T04:41:21.218Z,1009.79
2018-02-16T04:42:21.246Z,1009.80
2018-02-16T04:43:21.274Z,1009.74
2018-02-16T04:44:21.301Z,1009.76
2018-02-16T04:45:21.330Z,1009.71
2018-02-16T04:46:21.357Z,1009.75
2018-02-16T04:47:21.384Z,1009.74
2018-02-16T04:48:21.411Z,1009.69
2018-02-16T04:49:21.439Z,1009.72
2018-02-16T04:50:21.467Z,1009.69
2018-02-16T04:51:21.514Z,1009.68
2018-02-16T04:52:21.521Z,1009.70
2018-02-16T04:53:21.551Z,1009.72
2018-02-16T04:54:21.604Z,1009.69
2018-02-16T04:55:21.606Z,1009.69
2018-02-16T04:56:21.631Z,1009.66
2018-02-16T04:57:21.659Z,1009.66
2018-02-16T04:58:21.687Z,1009.68
2018-02-16T04:59:21.715Z,1009.66
2018-02-16T05:00:21.745Z,1009.68
2018-02-16T05:01:21.772Z,1009.68
2018-02-16T05:02:21.798Z,1009.67
2018-02-16T05:03:21.825Z,1009.64
2018-02-16T05:04:21.852Z,1009.66
2018-02-16T05:05:21.889Z,1009.64
2018-02-16T05:06:21.908Z,1009.64
2018-02-16T05:07:21.936Z,1009.63
2018-02-16T05:08:21.963Z,1009.63
2018-02-16T05:09:21.990Z,1009.60
2018-02-16T05:10:22.018Z,1009.62
2018-02-16T05:11:22.046Z,1009.59
2018-02-16T05:12:22.072Z,1009.56
2018-02-16T05:13:22.102Z,1009.59
2018-02-16T05:14:22.157Z,1009.61
2018-02-16T05:15:22.156Z,1009.61
2018-02-16T05:16:22.183Z,1009.57
2018-02-16T05:17:22.253Z,1009.59
2018-02-16T05:18:22.239Z,1009.59
2018-02-16T05:19:22.267Z,1009.61
2018-02-16T05:20:22.293Z,1009.57
2018-02-16T05:21:22.337Z,1009.55
2018-02-16T05:22:22.349Z,1009.56
2018-02-16T05:23:22.377Z,1009.54
2018-02-16T05:24:22.403Z,1009.51
2018-02-16T05:25:22.431Z,1009.56
2018-02-16T05:26:22.459Z,1009.55
2018-02-16T05:27:22.490Z,1009.50
2018-02-16T05:28:22.513Z,1009.55
2018-02-16T05:29:22.541Z,1009.52
2018-02-16T05:30:22.569Z,1009.53
2018-02-16T05:31:22.596Z,1009.53
2018-02-16T05:32:22.624Z,1009.49
2018-02-16T05:33:22.651Z,1009.48
2018-02-16T05:34:22.678Z,1009.47
2018-02-16T05:35:22.707Z,1009.47
2018-02-16T05:36:22.735Z,1009.45
2018-02-16T05:37:22.801Z,1009.48
2018-02-16T05:38:22.792Z,1009.45
2018-02-16T05:39:22.857Z,1009.46
2018-02-16T05:40:22.844Z,1009.47
2018-02-16T05:41:22.871Z,1009.55
2018-02-16T05:42:22.899Z,1009.54
2018-02-16T05:43:22.927Z,1009.51
2018-02-16T05:44:22.955Z,1009.51
2018-02-16T05:45:22.981Z,1009.50
2018-02-16T05:46:23.011Z,1009.48
2018-02-16T05:47:23.037Z,1009.48
2018-02-16T05:48:23.064Z,1009.44
2018-02-16T05:49:23.095Z,1009.54
2018-02-16T05:50:23.119Z,1009.54
2018-02-16T05:51:23.148Z,1009.48
2018-02-16T05:52:23.174Z,1009.48
2018-02-16T05:53:23.202Z,1009.47
2018-02-16T05:54:23.230Z,1009.51
2018-02-16T05:55:23.257Z,1009.46
2018-02-16T05:56:23.287Z,1009.54
2018-02-16T05:57:23.313Z,1009.54
2018-02-16T05:58:23.342Z,1009.45
2018-02-16T05:59:23.368Z,1009.55
2018-02-16T06:00:23.396Z,1009.47
2018-02-16T06:01:23.422Z,1009.49
2018-02-16T06:02:23.450Z,1009.48
2018-02-16T06:03:23.479Z,1009.48
2018-02-16T06:04:23.506Z,1009.48
2018-02-16T06:05:23.533Z,1009.45
2018-02-16T06:06:23.561Z,1009.44
2018-02-16T06:07:23.588Z,1009.52
2018-02-16T06:08:23.636Z,1009.49
2018-02-16T06:09:23.662Z,1009.48
2018-02-16T06:10:23.672Z,1009.47
2018-02-16T06:11:23.700Z,1009.49
2018-02-16T06:12:23.726Z,1009.48
2018-02-16T06:13:23.759Z,1009.50
2018-02-16T06:14:23.782Z,1009.46
2018-02-16T06:15:23.812Z,1009.50
2018-02-16T06:16:23.837Z,1009.50
2018-02-16T06:17:23.865Z,1009.53
2018-02-16T06:18:23.892Z,1009.49
2018-02-16T06:19:23.923Z,1009.49
2018-02-16T06:20:23.948Z,1009.50
2018-02-16T06:21:23.976Z,1009.45
2018-02-16T06:22:24.004Z,1009.47
2018-02-16T06:23:24.031Z,1009.49
2018-02-16T06:24:24.058Z,1009.46
2018-02-16T06:25:24.085Z,1009.55
2018-02-16T06:26:24.148Z,1009.52
2018-02-16T06:27:24.141Z,1009.48
2018-02-16T06:28:24.169Z,1009.45
2018-02-16T06:29:24.197Z,1009.44
2018-02-16T06:30:24.227Z,1009.47
2018-02-16T06:31:24.253Z,1009.47
2018-02-16T06:32:24.282Z,1009.45
2018-02-16T06:33:24.306Z,1009.42
2018-02-16T06:34:24.357Z,1009.46
2018-02-16T06:35:24.363Z,1009.43
2018-02-16T06:36:24.449Z,1009.43
2018-02-16T06:37:24.418Z,1009.41
2018-02-16T06:38:24.446Z,1009.43
2018-02-16T06:39:24.475Z,1009.41
2018-02-16T06:40:24.503Z,1009.37
2018-02-16T06:41:24.530Z,1009.43
2018-02-16T06:42:24.558Z,1009.39
2018-02-16T06:43:24.584Z,1009.42
2018-02-16T06:44:24.611Z,1009.41
2018-02-16T06:45:24.640Z,1009.43
2018-02-16T06:46:24.682Z,1009.42
2018-02-16T06:47:24.701Z,1009.45
2018-02-16T06:48:24.729Z,1009.49
2018-02-16T06:49:24.763Z,1009.42
2018-02-16T06:50:24.785Z,1009.46
2018-02-16T06:51:24.811Z,1009.45
2018-02-16T06:52:24.837Z,1009.43
2018-02-16T06:53:24.869Z,1009.38
2018-02-16T06:54:24.940Z,1009.41
2018-02-16T06:55:24.924Z,1009.44
2018-02-16T06:56:24.946Z,1009.42
2018-02-16T06:57:24.971Z,1009.45
2018-02-16T06:58:25.027Z,1009.41
2018-02-16T06:59:25.029Z,1009.40
2018-02-16T07:00:25.060Z,1009.42
2018-02-16T07:01:25.092Z,1009.49
2018-02-16T07:02:25.169Z,1009.40
2018-02-16T07:03:25.148Z,1009.42
2018-02-16T07:04:25.164Z,1009.33
2018-02-16T07:05:25.192Z,1009.40
2018-02-16T07:06:25.220Z,1009.40
2018-02-16T07:07:25.248Z,1009.38
2018-02-16T07:08:25.280Z,1009.37
2018-02-16T07:09:25.307Z,1009.38
2018-02-16T07:10:25.342Z,1009.38
2018-02-16T07:11:25.361Z,1009.38
2018-02-16T07:12:25.387Z,1009.39
2018-02-16T07:13:25.445Z,1009.36
2018-02-16T07:14:25.459Z,1009.38
2018-02-16T07:15:25.472Z,1009.41
2018-02-16T07:16:25.565Z,1009.39
2018-02-16T07:17:25.530Z,1009.37
2018-02-16T07:18:25.553Z,1009.35
2018-02-16T07:19:25.581Z,1009.35
2018-02-16T07:20:25.608Z,1009.34
2018-02-16T07:21:25.636Z,1009.36
2018-02-16T07:22:25.689Z,1009.34
2018-02-16T07:23:25.692Z,1009.36
2018-02-16T07:24:25.721Z,1009.36
2018-02-16T07:25:25.748Z,1009.38
2018-02-16T07:26:25.777Z,1009.34
2018-02-16T07:27:25.807Z,1009.31
2018-02-16T07:28:25.831Z,1009.28
2018-02-16T07:29:25.858Z,1009.27
2018-02-16T07:30:25.888Z,1009.24
2018-02-16T07:31:25.915Z,1009.22
2018-02-16T07:32:25.958Z,1009.24
2018-02-16T07:33:25.968Z,1009.16
2018-02-16T07:34:25.998Z,1009.19
2018-02-16T07:35:26.026Z,1009.18
2018-02-16T07:36:26.053Z,1009.16
2018-02-16T07:37:26.082Z,1009.17
2018-02-16T07:38:26.108Z,1009.20
2018-02-16T07:39:26.135Z,1009.15
2018-02-16T07:40:26.164Z,1009.15
2018-02-16T07:41:26.192Z,1009.17
2018-02-16T07:42:26.221Z,1009.18
2018-02-16T07:43:26.250Z,1009.22
2018-02-16T07:44:26.273Z,1009.18
2018-02-16T07:45:26.305Z,1009.16
2018-02-16T07:46:26.330Z,1009.21
2018-02-16T07:47:26.381Z,1009.26
2018-02-16T07:48:26.385Z,1009.17
2018-02-16T07:49:26.414Z,1009.17
2018-02-16T07:50:26.442Z,1009.17
2018-02-16T07:51:26.476Z,1009.15
2018-02-16T07:52:26.519Z,1009.16
2018-02-16T07:53:26.524Z,1009.15
2018-02-16T07:54:26.551Z,1009.14
2018-02-16T07:55:26.597Z,1009.19
2018-02-16T07:56:26.606Z,1009.14
2018-02-16T07:57:26.633Z,1009.15
2018-02-16T07:58:26.663Z,1009.15
2018-02-16T07:59:26.693Z,1009.12
2018-02-16T08:00:26.717Z,1009.12
2018-02-16T08:01:26.744Z,1009.15
2018-02-16T08:02:26.773Z,1009.10
2018-02-16T08:03:26.801Z,1009.10
2018-02-16T08:04:26.828Z,1009.10
2018-02-16T08:05:26.858Z,1009.10
2018-02-16T08:06:26.885Z,1009.10
2018-02-16T08:07:26.912Z,1009.07
2018-02-16T08:08:26.948Z,1009.06
2018-02-16T08:09:26.968Z,1009.09
2018-02-16T08:10:26.997Z,1009.09
2018-02-16T08:11:27.032Z,1009.15
2018-02-16T08:12:27.076Z,1009.12
2018-02-16T08:13:27.081Z,1009.12
2018-02-16T08:14:27.109Z,1009.12
2018-02-16T08:15:27.143Z,1009.10
2018-02-16T08:16:27.163Z,1009.09
2018-02-16T08:17:27.190Z,1009.11
2018-02-16T08:18:27.219Z,1009.08
2018-02-16T08:19:27.246Z,1009.09
2018-02-16T08:20:27.274Z,1009.09
2018-02-16T08:21:27.303Z,1009.10
2018-02-16T08:22:27.330Z,1009.09
2018-02-16T08:23:27.358Z,1009.11
2018-02-16T08:24:27.389Z,1009.09
2018-02-16T08:25:27.413Z,1009.06
2018-02-16T08:26:27.440Z,1009.05
2018-02-16T08:27:27.470Z,1009.07
2018-02-16T08:28:27.497Z,1009.09
2018-02-16T08:29:27.542Z,1009.12
2018-02-16T08:30:27.554Z,1009.09
2018-02-16T08:31:27.580Z,1009.10
2018-02-16T08:32:27.607Z,1009.15
2018-02-16T08:33:27.635Z,1009.07
2018-02-16T08:34:27.664Z,1009.10
2018-02-16T08:35:27.695Z,1009.07
2018-02-16T08:36:27.721Z,1009.08
2018-02-16T08:37:27.749Z,1009.04
2018-02-16T08:38:27.778Z,1009.08
2018-02-16T08:39:27.807Z,1009.09
2018-02-16T08:40:27.834Z,1009.08
2018-02-16T08:41:27.895Z,1009.09
2018-02-16T08:42:27.887Z,1009.12
2018-02-16T08:43:27.918Z,1009.09
2018-02-16T08:44:27.946Z,1009.11
2018-02-16T08:45:28.007Z,1009.17
2018-02-16T08:46:28.000Z,1009.08
2018-02-16T08:47:28.027Z,1009.10
2018-02-16T08:48:28.058Z,1009.13
2018-02-16T08:49:28.083Z,1009.10
2018-02-16T08:50:28.116Z,1009.08
2018-02-16T08:51:28.147Z,1009.11
2018-02-16T08:52:28.165Z,1009.10
2018-02-16T08:53:28.193Z,1009.11
2018-02-16T08:54:28.222Z,1009.07
2018-02-16T08:55:28.251Z,1009.06
2018-02-16T08:56:28.278Z,1009.08
2018-02-16T08:57:28.307Z,1009.08
2018-02-16T08:58:28.333Z,1009.09
2018-02-16T08:59:28.361Z,1009.09
2018-02-16T09:00:28.389Z,1009.10
2018-02-16T09:01:28.416Z,1009.12
2018-02-16T09:02:28.444Z,1009.13
2018-02-16T09:03:28.474Z,1009.13
2018-02-16T09:04:28.501Z,1009.14
2018-02-16T09:05:28.532Z,1009.14
2018-02-16T09:06:29.395Z,1009.17
2018-02-16T09:07:28.586Z,1009.15
2018-02-16T09:08:28.650Z,1009.15
2018-02-16T09:09:28.641Z,1009.19
2018-02-16T09:10:28.677Z,1009.20
2018-02-16T09:11:28.699Z,1009.22
2018-02-16T09:12:28.726Z,1009.20
2018-02-16T09:13:28.751Z,1009.23
2018-02-16T09:14:28.780Z,1009.22
2018-02-16T09:15:28.808Z,1009.21
2018-02-16T09:16:29.387Z,1009.22
2018-02-16T09:17:28.863Z,1009.22
2018-02-16T09:18:28.893Z,1009.22
2018-02-16T09:19:28.921Z,1009.24
2018-02-16T09:20:28.948Z,1009.26
2018-02-16T09:21:28.978Z,1009.26
2018-02-16T09:22:29.004Z,1009.22
2018-02-16T09:23:29.033Z,1009.21
2018-02-16T09:24:29.953Z,1009.24
2018-02-16T09:25:29.089Z,1009.22
2018-02-16T09:26:29.116Z,1009.20
2018-02-16T09:27:29.145Z,1009.18
2018-02-16T09:28:29.171Z,1009.23
2018-02-16T09:29:29.887Z,1009.20
2018-02-16T09:30:29.226Z,1009.23
2018-02-16T09:31:29.255Z,1009.20
2018-02-16T09:32:29.282Z,1009.23
2018-02-16T09:33:29.310Z,1009.21
2018-02-16T09:34:29.339Z,1009.17
2018-02-16T09:35:29.367Z,1009.21
2018-02-16T09:36:29.413Z,1009.23
2018-02-16T09:37:29.422Z,1009.20
2018-02-16T09:38:29.450Z,1009.23
2018-02-16T09:39:29.478Z,1009.25
2018-02-16T09:40:29.505Z,1009.22
2018-02-16T09:41:29.533Z,1009.23
2018-02-16T09:42:29.562Z,1009.29
2018-02-16T09:43:29.589Z,1009.28
2018-02-16T09:44:29.616Z,1009.23
2018-02-16T09:45:29.644Z,1009.24
2018-02-16T09:46:29.680Z,1009.26
2018-02-16T09:47:29.702Z,1009.26
2018-02-16T09:48:29.765Z,1009.31
2018-02-16T09:49:29.756Z,1009.23
2018-02-16T09:50:29.786Z,1009.25
2018-02-16T09:51:29.818Z,1009.24
2018-02-16T09:52:29.843Z,1009.21
2018-02-16T09:53:29.868Z,1009.23
2018-02-16T09:54:29.901Z,1009.19
2018-02-16T09:55:29.927Z,1009.23
2018-02-16T09:56:29.953Z,1009.19
2018-02-16T09:57:30.022Z,1009.23
2018-02-16T09:58:30.009Z,1009.20
2018-02-16T09:59:30.037Z,1009.17
2018-02-16T10:00:30.063Z,1009.18
2018-02-16T10:01:30.092Z,1009.18
2018-02-16T10:02:30.136Z,1009.16
2018-02-16T10:03:30.148Z,1009.16
2018-02-16T10:04:30.178Z,1009.18
2018-02-16T10:05:30.221Z,1009.16
2018-02-16T10:06:30.232Z,1009.13
2018-02-16T10:07:30.260Z,1009.14
2018-02-16T10:08:30.289Z,1009.14
2018-02-16T10:09:30.315Z,1009.14
2018-02-16T10:10:30.344Z,1009.16
2018-02-16T10:11:30.374Z,1009.18
2018-02-16T10:12:30.400Z,1009.12
2018-02-16T10:13:30.455Z,1009.11
2018-02-16T10:14:30.455Z,1009.13
2018-02-16T10:15:30.484Z,1009.09
2018-02-16T10:16:30.514Z,1009.09
2018-02-16T10:17:30.541Z,1009.12
2018-02-16T10:18:30.566Z,1009.14
2018-02-16T10:19:30.597Z,1009.16
2018-02-16T10:20:30.622Z,1009.17
2018-02-16T10:21:30.652Z,1009.14
2018-02-16T10:22:30.720Z,1009.16
2018-02-16T10:23:30.706Z,1009.13
2018-02-16T10:24:30.762Z,1009.16
2018-02-16T10:25:30.777Z,1009.16
2018-02-16T10:26:30.789Z,1009.15
2018-02-16T10:27:30.817Z,1009.18
2018-02-16T10:28:30.846Z,1009.19
2018-02-16T10:29:30.873Z,1009.15
2018-02-16T10:30:30.902Z,1009.13
2018-02-16T10:31:30.953Z,1009.10
2018-02-16T10:32:30.957Z,1009.10
2018-02-16T10:33:30.985Z,1009.10
2018-02-16T10:34:31.014Z,1009.11
2018-02-16T10:35:31.065Z,1009.11
2018-02-16T10:36:31.069Z,1009.13
2018-02-16T10:37:31.096Z,1009.09
2018-02-16T10:38:31.129Z,1009.10
2018-02-16T10:39:31.153Z,1009.07
2018-02-16T10:40:31.183Z,1009.11
2018-02-16T10:41:31.208Z,1009.04
2018-02-16T10:42:31.237Z,1009.10
2018-02-16T10:43:31.279Z,1009.07
2018-02-16T10:44:31.293Z,1009.03
2018-02-16T10:45:31.322Z,1009.04
2018-02-16T10:46:31.349Z,1009.05
2018-02-16T10:47:31.410Z,1009.00
2018-02-16T10:48:31.405Z,1008.97
2018-02-16T10:49:31.433Z,1009.00
2018-02-16T10:50:31.461Z,1008.98
2018-02-16T10:51:31.513Z,1008.99
2018-02-16T10:52:31.518Z,1009.00
2018-02-16T10:53:31.544Z,1008.89
2018-02-16T10:54:31.573Z,1008.98
2018-02-16T10:55:31.600Z,1008.98
2018-02-16T10:56:31.665Z,1008.98
2018-02-16T10:57:31.656Z,1008.94
2018-02-16T10:58:31.719Z,1008.94
2018-02-16T10:59:31.713Z,1008.95
2018-02-16T11:00:31.775Z,1008.88
2018-02-16T11:01:31.770Z,1008.90
2018-02-16T11:02:31.797Z,1008.91
2018-02-16T11:03:31.824Z,1008.92
2018-02-16T11:04:31.853Z,1008.90
2018-02-16T11:05:31.880Z,1008.88
2018-02-16T11:06:31.908Z,1008.85
2018-02-16T11:07:31.936Z,1008.87
2018-02-16T11:08:31.963Z,1008.86
2018-02-16T11:09:31.990Z,1008.90
2018-02-16T11:10:32.019Z,1008.86
2018-02-16T11:11:32.049Z,1008.91
2018-02-16T11:12:32.077Z,1008.89
2018-02-16T11:13:32.103Z,1008.83
2018-02-16T11:14:32.130Z,1008.78
2018-02-16T11:15:32.160Z,1008.80
2018-02-16T11:16:32.224Z,1008.79
2018-02-16T11:17:32.216Z,1008.77
2018-02-16T11:18:32.242Z,1008.78
2018-02-16T11:19:32.272Z,1008.75
2018-02-16T11:20:32.318Z,1008.76
2018-02-16T11:21:32.342Z,1008.76
2018-02-16T11:22:32.354Z,1008.74
2018-02-16T11:23:32.383Z,1008.74
2018-02-16T11:24:32.409Z,1008.74
2018-02-16T11:25:32.438Z,1008.72
2018-02-16T11:26:32.467Z,1008.72
2018-02-16T11:27:32.494Z,1008.74
2018-02-16T11:28:32.521Z,1008.70
2018-02-16T11:29:32.550Z,1008.68
2018-02-16T11:30:32.615Z,1008.69
2018-02-16T11:31:32.606Z,1008.67
2018-02-16T11:32:32.635Z,1008.66
2018-02-16T11:33:32.661Z,1008.67
2018-02-16T11:34:32.690Z,1008.67
2018-02-16T11:35:32.718Z,1008.71
2018-02-16T11:36:32.746Z,1008.73
2018-02-16T11:37:32.773Z,1008.72
2018-02-16T11:38:32.803Z,1008.73
2018-02-16T11:39:32.876Z,1008.70
2018-02-16T11:40:32.857Z,1008.70
2018-02-16T11:41:32.885Z,1008.72
2018-02-16T11:42:32.914Z,1008.71
2018-02-16T11:43:32.942Z,1008.79
2018-02-16T11:44:32.970Z,1008.69
2018-02-16T11:45:32.997Z,1008.68
2018-02-16T11:46:33.026Z,1008.66
2018-02-16T11:47:33.054Z,1008.70
2018-02-16T11:48:33.080Z,1008.76
2018-02-16T11:49:33.108Z,1008.75
2018-02-16T11:50:33.140Z,1008.76
2018-02-16T11:51:33.164Z,1008.66
2018-02-16T11:52:33.191Z,1008.67
2018-02-16T11:53:33.221Z,1008.61
2018-02-16T11:54:33.263Z,1008.64
2018-02-16T11:55:33.276Z,1008.60
2018-02-16T11:56:33.306Z,1008.66
2018-02-16T11:57:33.332Z,1008.62
2018-02-16T11:58:33.359Z,1008.64
2018-02-16T11:59:33.425Z,1008.62
2018-02-16T12:00:33.416Z,1008.60
2018-02-16T12:01:33.445Z,1008.63
2018-02-16T12:02:33.472Z,1008.68
2018-02-16T12:03:33.501Z,1008.62
2018-02-16T12:04:33.527Z,1008.70
2018-02-16T12:05:33.555Z,1008.64